Decoded Metar for PABI (DELTA JUNCTION in AK, USA) (IATA:BIG) | Meteo·Mobile Aviation Weather
aviador You're here:

PABI Decoded Metar

DELTA JUNCTION in AK, USA
Report Time2019-10-18 13:53:00
UTC Time2019-10-18 14:50:49
Flight Rules mvfr MVFR
Wind220° at 05 kt
W.Decomp.*RWY 19: 5.0 kt HW 0.6 kt RCW
RWY 25: 3.0 kt HW 4 kt LCW
RWY 28: 0.6 kt HW 5 kt LCW
Visibility9999 m
Phenomena:N/A
Clouds:Overcast 026 Hf
Expected CloudBase > 400 ft AGL from Temp-Dew spread
Ceiling2,600 ft
Temp-7°C (ISA -19)
Dew Point-8°C (93% RH)
AAT-11.7°C
QNH989 hPa
Density Alt-262 ft
Elevation1,266 ft
Report Wrong Elevation
Raw Report
PABI 181353Z AUTO 22005KT 10SM OVC026 M07/M08 A2920=

Extra information for PABI:More info

Metar Taf Metar & Taf Last 4 Metars F.Rules Stats Wind Profile Meteogram Temp Stats Airport Information Weather charts Add Link Nearby VenuesMetar ALERT Operation Metar Decoded Social comments

AIRNAV info for PABI